createdAt,value
2016-11-19T00:00:10.724Z,0
2016-11-19T00:01:10.428Z,0
2016-11-19T00:02:10.157Z,0
2016-11-19T00:03:10.790Z,0
2016-11-19T00:04:10.515Z,0
2016-11-19T00:05:10.851Z,0
2016-11-19T00:06:10.568Z,0
2016-11-19T00:07:10.305Z,0
2016-11-19T00:08:10.922Z,0
2016-11-19T00:09:10.658Z,0
2016-11-19T00:10:10.683Z,0
2016-11-19T00:11:11.012Z,0
2016-11-19T00:12:11.045Z,0
2016-11-19T00:13:11.094Z,0
2016-11-19T00:14:10.786Z,0
2016-11-19T00:15:11.135Z,0
2016-11-19T00:16:10.860Z,0
2016-11-19T00:17:10.569Z,0
2016-11-19T00:18:10.638Z,0
2016-11-19T00:19:10.633Z,0
2016-11-19T00:20:10.667Z,0
2016-11-19T00:21:10.372Z,0
2016-11-19T00:22:10.700Z,0
2016-11-19T00:23:10.729Z,0
2016-11-19T00:24:11.074Z,0
2016-11-19T00:25:11.095Z,0
2016-11-19T00:26:11.424Z,0
2016-11-19T00:27:11.191Z,0
2016-11-19T00:28:11.205Z,0
2016-11-19T00:29:42.995Z,0
2016-11-19T00:30:10.947Z,0
2016-11-19T00:31:11.567Z,0
2016-11-19T00:32:11.286Z,0
2016-11-19T00:33:10.697Z,0
2016-11-19T00:34:11.346Z,0
2016-11-19T00:35:11.066Z,0
2016-11-19T00:36:11.383Z,0
2016-11-19T00:37:11.441Z,0
2016-11-19T00:38:11.756Z,0
2016-11-19T00:39:10.877Z,0
2016-11-19T00:40:11.810Z,0
2016-11-19T00:41:11.831Z,0
2016-11-19T00:42:11.868Z,0
2016-11-19T00:43:11.296Z,0
2016-11-19T00:44:11.018Z,0
2016-11-19T00:45:11.362Z,0
2016-11-19T00:46:11.671Z,0
2016-11-19T00:47:11.718Z,0
2016-11-19T00:48:11.419Z,0
2016-11-19T00:49:11.141Z,0
2016-11-19T00:50:12.081Z,0
2016-11-19T00:51:11.818Z,0
2016-11-19T00:52:11.852Z,0
2016-11-19T00:53:11.856Z,0
2016-11-19T00:54:11.904Z,0
2016-11-19T00:55:12.250Z,0
2016-11-19T00:56:12.278Z,0
2016-11-19T00:57:11.992Z,0
2016-11-19T00:58:12.295Z,0
2016-11-19T00:59:12.353Z,0
2016-11-19T01:00:12.353Z,0
2016-11-19T01:01:11.794Z,0
2016-11-19T01:02:11.819Z,0
2016-11-19T01:03:11.847Z,0
2016-11-19T01:04:11.571Z,0
2016-11-19T01:05:11.649Z,0
2016-11-19T01:06:11.950Z,0
2016-11-19T01:07:11.971Z,0
2016-11-19T01:08:12.279Z,0
2016-11-19T01:09:12.308Z,0
2016-11-19T01:10:12.357Z,0
2016-11-19T01:11:12.370Z,0
2016-11-19T01:12:12.396Z,0
2016-11-19T01:13:12.131Z,0
2016-11-19T01:14:12.464Z,0
2016-11-19T01:15:12.181Z,0
2016-11-19T01:16:12.226Z,0
2016-11-19T01:17:11.943Z,0
2016-11-19T01:18:12.575Z,0
2016-11-19T01:19:12.603Z,0
2016-11-19T01:20:12.616Z,0
2016-11-19T01:21:12.958Z,0
2016-11-19T01:22:12.986Z,0
2016-11-19T01:23:12.699Z,0
2016-11-19T01:24:12.724Z,0
2016-11-19T01:25:13.060Z,0
2016-11-19T01:26:13.092Z,0
2016-11-19T01:27:12.513Z,0
2016-11-19T01:28:12.522Z,0
2016-11-19T01:29:12.859Z,0
2016-11-19T01:30:13.224Z,0
2016-11-19T01:31:12.925Z,0
2016-11-19T01:32:12.649Z,0
2016-11-19T01:33:13.282Z,0
2016-11-19T01:34:12.699Z,0
2016-11-19T01:35:13.072Z,0
2016-11-19T01:36:12.737Z,0
2016-11-19T01:37:13.402Z,0
2016-11-19T01:38:13.122Z,0
2016-11-19T01:39:13.151Z,0
2016-11-19T01:40:13.167Z,0
2016-11-19T01:41:12.892Z,0
2016-11-19T01:42:13.572Z,0
2016-11-19T01:43:13.575Z,0
2016-11-19T01:44:12.970Z,0
2016-11-19T01:45:13.329Z,0
2016-11-19T01:46:13.346Z,0
2016-11-19T01:47:13.685Z,0
2016-11-19T01:48:13.082Z,0
2016-11-19T01:49:13.426Z,0
2016-11-19T01:50:13.751Z,0
2016-11-19T01:51:13.475Z,0
2016-11-19T01:52:13.488Z,0
2016-11-19T01:53:13.529Z,0
2016-11-19T01:54:13.857Z,0
2016-11-19T01:55:13.282Z,0
2016-11-19T01:56:13.307Z,0
2016-11-19T01:57:13.647Z,0
2016-11-19T01:58:13.664Z,0
2016-11-19T01:59:13.701Z,0
2016-11-19T02:00:13.717Z,0
2016-11-19T02:01:13.766Z,0
2016-11-19T02:02:13.207Z,0
2016-11-19T02:03:14.112Z,0
2016-11-19T02:04:13.536Z,0
2016-11-19T02:05:14.173Z,0
2016-11-19T02:06:13.589Z,0
2016-11-19T02:07:13.915Z,0
2016-11-19T02:08:14.243Z,0
2016-11-19T02:09:13.979Z,0
2016-11-19T02:10:13.993Z,0
2016-11-19T02:11:13.728Z,0
2016-11-19T02:12:14.057Z,0
2016-11-19T02:13:13.786Z,0
2016-11-19T02:14:14.403Z,0
2016-11-19T02:15:14.164Z,0
2016-11-19T02:16:14.143Z,0
2016-11-19T02:17:14.190Z,0
2016-11-19T02:18:14.202Z,0
2016-11-19T02:19:13.942Z,0
2016-11-19T02:20:14.579Z,0
2016-11-19T02:21:13.992Z,0
2016-11-19T02:22:14.365Z,0
2016-11-19T02:23:14.029Z,0
2016-11-19T02:24:13.774Z,0
2016-11-19T02:25:14.420Z,0
2016-11-19T02:26:14.728Z,0
2016-11-19T02:27:14.465Z,0
2016-11-19T02:28:14.797Z,0
2016-11-19T02:29:14.533Z,0
2016-11-19T02:30:14.547Z,0
2016-11-19T02:31:14.303Z,0
2016-11-19T02:32:14.316Z,0
2016-11-19T02:33:14.933Z,0
2016-11-19T02:34:14.955Z,0
2016-11-19T02:35:14.391Z,0
2016-11-19T02:36:15.015Z,0
2016-11-19T02:37:14.736Z,0
2016-11-19T02:38:14.453Z,0
2016-11-19T02:39:14.790Z,0
2016-11-19T02:40:14.514Z,0
2016-11-19T02:41:14.847Z,0
2016-11-19T02:42:14.894Z,0
2016-11-19T02:43:14.598Z,0
2016-11-19T02:44:14.925Z,0
2016-11-19T02:45:14.649Z,0
2016-11-19T02:46:14.678Z,0
2016-11-19T02:47:14.716Z,0
2016-11-19T02:48:15.076Z,0
2016-11-19T02:49:15.066Z,0
2016-11-19T02:50:15.098Z,0
2016-11-19T02:51:14.811Z,0
2016-11-19T02:52:15.455Z,0
2016-11-19T02:53:14.871Z,0
2016-11-19T02:54:15.184Z,0
2016-11-19T02:55:15.237Z,0
2016-11-19T02:56:14.962Z,0
2016-11-19T02:57:15.295Z,0
2016-11-19T02:58:15.607Z,0
2016-11-19T02:59:15.028Z,0
2016-11-19T03:00:15.665Z,0
2016-11-19T03:01:15.398Z,0
2016-11-19T03:02:14.834Z,0
2016-11-19T03:03:15.447Z,0
2016-11-19T03:04:15.480Z,0
2016-11-19T03:05:14.892Z,0
2016-11-19T03:06:15.838Z,0
2016-11-19T03:07:15.546Z,0
2016-11-19T03:08:15.289Z,0
2016-11-19T03:09:15.916Z,0
2016-11-19T03:10:15.928Z,0
2016-11-19T03:11:15.678Z,0
2016-11-19T03:12:15.396Z,0
2016-11-19T03:13:15.115Z,0
2016-11-19T03:14:16.071Z,0
2016-11-19T03:15:15.779Z,0
2016-11-19T03:16:15.798Z,0
2016-11-19T03:17:15.821Z,0
2016-11-19T03:18:15.866Z,0
2016-11-19T03:19:16.186Z,0
2016-11-19T03:20:15.628Z,0
2016-11-19T03:21:15.645Z,0
2016-11-19T03:22:15.949Z,0
2016-11-19T03:23:16.010Z,0
2016-11-19T03:24:16.022Z,0
2016-11-19T03:25:16.358Z,0
2016-11-19T03:26:16.380Z,0
2016-11-19T03:27:15.792Z,0
2016-11-19T03:28:15.516Z,0
2016-11-19T03:29:16.170Z,0
2016-11-19T03:30:16.183Z,0
2016-11-19T03:31:16.207Z,0
2016-11-19T03:32:15.628Z,0
2016-11-19T03:33:15.973Z,0
2016-11-19T03:34:16.601Z,0
2016-11-19T03:35:16.626Z,0
2016-11-19T03:36:16.351Z,0
2016-11-19T03:37:16.375Z,0
2016-11-19T03:38:15.509Z,0
2016-11-19T03:39:16.440Z,0
2016-11-19T03:40:16.462Z,0
2016-11-19T03:41:16.527Z,0
2016-11-19T03:42:16.511Z,0
2016-11-19T03:43:16.546Z,0
2016-11-19T03:44:16.259Z,0
2016-11-19T03:45:16.597Z,0
2016-11-19T03:46:16.630Z,0
2016-11-19T03:47:16.038Z,0
2016-11-19T03:48:16.377Z,0
2016-11-19T03:49:16.402Z,0
2016-11-19T03:50:16.426Z,0
2016-11-19T03:51:16.761Z,0
2016-11-19T03:52:17.094Z,0
2016-11-19T03:53:16.821Z,0
2016-11-19T03:54:16.552Z,0
2016-11-19T03:55:16.868Z,0
2016-11-19T03:56:16.283Z,0
2016-11-19T03:57:16.926Z,0
2016-11-19T03:58:16.947Z,0
2016-11-19T03:59:17.279Z,0
2016-11-19T04:00:17.008Z,0
2016-11-19T04:01:17.349Z,0
2016-11-19T04:02:17.362Z,0
2016-11-19T04:03:17.398Z,0
2016-11-19T04:04:17.119Z,0
2016-11-19T04:05:17.447Z,0
2016-11-19T04:06:17.164Z,0
2016-11-19T04:07:17.210Z,0
2016-11-19T04:08:16.938Z,0
2016-11-19T04:09:17.584Z,0
2016-11-19T04:10:17.272Z,0
2016-11-19T04:11:17.304Z,0
2016-11-19T04:12:17.652Z,0
2016-11-19T04:13:17.373Z,0
2016-11-19T04:14:17.086Z,0
2016-11-19T04:15:17.111Z,0
2016-11-19T04:16:17.456Z,0
2016-11-19T04:17:17.172Z,0
2016-11-19T04:18:17.501Z,0
2016-11-19T04:19:17.230Z,0
2016-11-19T04:20:17.858Z,0
2016-11-19T04:21:16.655Z,0
2016-11-19T04:22:17.608Z,0
2016-11-19T04:23:17.937Z,0
2016-11-19T04:24:17.354Z,0
2016-11-19T04:25:17.390Z,0
2016-11-19T04:26:17.432Z,0
2016-11-19T04:27:17.433Z,0
2016-11-19T04:28:17.782Z,0
2016-11-19T04:29:17.800Z,0
2016-11-19T04:30:18.130Z,0
2016-11-19T04:31:17.863Z,0
2016-11-19T04:32:17.892Z,0
2016-11-19T04:33:17.596Z,0
2016-11-19T04:34:17.325Z,0
2016-11-19T04:35:17.970Z,0
2016-11-19T04:36:18.010Z,0
2016-11-19T04:37:18.023Z,0
2016-11-19T04:38:18.040Z,0
2016-11-19T04:39:18.073Z,0
2016-11-19T04:40:17.797Z,0
2016-11-19T04:41:17.838Z,0
2016-11-19T04:42:17.855Z,0
2016-11-19T04:43:17.876Z,0
2016-11-19T04:44:17.612Z,0
2016-11-19T04:45:18.538Z,0
2016-11-19T04:46:17.658Z,0
2016-11-19T04:47:17.698Z,0
2016-11-19T04:48:18.303Z,0
2016-11-19T04:49:17.768Z,0
2016-11-19T04:50:18.366Z,0
2016-11-19T04:51:18.093Z,0
2016-11-19T04:52:18.721Z,0
2016-11-19T04:53:18.147Z,0
2016-11-19T04:54:18.178Z,0
2016-11-19T04:55:18.512Z,0
2016-11-19T04:56:18.536Z,0
2016-11-19T04:57:18.574Z,0
2016-11-19T04:58:18.298Z,0
2016-11-19T04:59:18.331Z,0
2016-11-19T05:00:18.351Z,0
2016-11-19T05:01:18.064Z,0
2016-11-19T05:02:18.701Z,0
2016-11-19T05:03:18.408Z,0
2016-11-19T05:04:18.150Z,0
2016-11-19T05:05:18.780Z,0
2016-11-19T05:06:19.128Z,0
2016-11-19T05:07:17.917Z,0
2016-11-19T05:08:19.186Z,0
2016-11-19T05:09:19.186Z,0
2016-11-19T05:10:18.307Z,0
2016-11-19T05:11:18.648Z,0
2016-11-19T05:12:18.960Z,0
2016-11-19T05:13:18.994Z,0
2016-11-19T05:14:19.337Z,0
2016-11-19T05:15:19.399Z,0
2016-11-19T05:16:18.774Z,0
2016-11-19T05:17:19.107Z,0
2016-11-19T05:18:19.440Z,0
2016-11-19T05:19:19.161Z,0
2016-11-19T05:20:19.198Z,0
2016-11-19T05:21:19.219Z,0
2016-11-19T05:22:19.246Z,0
2016-11-19T05:23:19.564Z,0
2016-11-19T05:24:18.985Z,0
2016-11-19T05:25:19.334Z,0
2016-11-19T05:26:19.051Z,0
2016-11-19T05:27:19.683Z,0
2016-11-19T05:28:19.408Z,0
2016-11-19T05:29:19.137Z,0
2016-11-19T05:30:19.469Z,0
2016-11-19T05:31:19.478Z,0
2016-11-19T05:32:19.515Z,0
2016-11-19T05:33:19.872Z,0
2016-11-19T05:34:19.557Z,0
2016-11-19T05:35:19.904Z,0
2016-11-19T05:36:19.638Z,0
2016-11-19T05:37:19.655Z,0
2016-11-19T05:38:18.767Z,0
2016-11-19T05:39:20.016Z,0
2016-11-19T05:40:19.768Z,0
2016-11-19T05:41:20.062Z,0
2016-11-19T05:42:19.790Z,0
2016-11-19T05:43:19.515Z,0
2016-11-19T05:44:19.863Z,0
2016-11-19T05:45:19.884Z,0
2016-11-19T05:46:20.201Z,0
2016-11-19T05:47:19.622Z,0
2016-11-19T05:48:19.963Z,0
2016-11-19T05:49:20.291Z,0
2016-11-19T05:50:20.049Z,0
2016-11-19T05:51:19.724Z,0
2016-11-19T05:52:19.453Z,0
2016-11-19T05:53:20.090Z,0
2016-11-19T05:54:19.798Z,0
2016-11-19T05:55:19.843Z,0
2016-11-19T05:56:20.176Z,0
2016-11-19T05:57:20.496Z,0
2016-11-19T05:58:19.924Z,0
2016-11-19T05:59:20.249Z,0
2016-11-19T06:00:20.285Z,0
2016-11-19T06:01:19.999Z,0
2016-11-19T06:02:20.036Z,0
2016-11-19T06:03:19.752Z,0
2016-11-19T06:04:20.085Z,0
2016-11-19T06:05:20.714Z,0
2016-11-19T06:06:20.143Z,0
2016-11-19T06:07:20.487Z,0
2016-11-19T06:08:20.791Z,0
2016-11-19T06:09:20.228Z,0
2016-11-19T06:10:20.233Z,0
2016-11-19T06:11:20.281Z,0
2016-11-19T06:12:20.949Z,0
2016-11-19T06:13:20.339Z,0
2016-11-19T06:14:20.647Z,0
2016-11-19T06:15:20.384Z,0
2016-11-19T06:16:21.028Z,0
2016-11-19T06:17:20.748Z,0
2016-11-19T06:18:20.797Z,0
2016-11-19T06:19:20.790Z,0
2016-11-19T06:20:21.142Z,0
2016-11-19T06:21:21.160Z,0
2016-11-19T06:22:21.188Z,0
2016-11-19T06:23:20.617Z,0
2016-11-19T06:24:20.941Z,0
2016-11-19T06:25:21.278Z,0
2016-11-19T06:26:20.995Z,0
2016-11-19T06:27:20.406Z,0
2016-11-19T06:28:21.360Z,0
2016-11-19T06:29:21.061Z,0
2016-11-19T06:30:21.086Z,0
2016-11-19T06:31:21.421Z,0
2016-11-19T06:32:20.859Z,0
2016-11-19T06:33:21.479Z,0
2016-11-19T06:34:21.195Z,0
2016-11-19T06:35:21.531Z,0
2016-11-19T06:36:21.255Z,0
2016-11-19T06:37:21.306Z,0
2016-11-19T06:38:21.340Z,0
2016-11-19T06:39:21.666Z,0
2016-11-19T06:40:21.692Z,0
2016-11-19T06:41:21.104Z,0
2016-11-19T06:42:21.124Z,0
2016-11-19T06:43:20.849Z,0
2016-11-19T06:44:21.781Z,0
2016-11-19T06:45:21.808Z,0
2016-11-19T06:46:21.538Z,0
2016-11-19T06:47:21.572Z,0
2016-11-19T06:48:21.600Z,0
2016-11-19T06:49:21.313Z,0
2016-11-19T06:50:21.325Z,0
2016-11-19T06:51:21.975Z,0
2016-11-19T06:52:21.395Z,0
2016-11-19T06:53:21.739Z,0
2016-11-19T06:54:21.756Z,0
2016-11-19T06:55:22.133Z,0
2016-11-19T06:56:21.810Z,0
2016-11-19T06:57:21.231Z,0
2016-11-19T06:58:21.871Z,0
2016-11-19T06:59:21.908Z,0
2016-11-19T07:00:22.229Z,0
2016-11-19T07:01:21.941Z,0
2016-11-19T07:02:21.669Z,0
2016-11-19T07:03:22.318Z,0
2016-11-19T07:04:22.339Z,0
2016-11-19T07:05:22.084Z,0
2016-11-19T07:06:22.385Z,0
2016-11-19T07:07:22.437Z,0
2016-11-19T07:08:22.142Z,0
2016-11-19T07:09:22.171Z,0
2016-11-19T07:10:22.203Z,0
2016-11-19T07:11:21.940Z,0
2016-11-19T07:12:22.251Z,0
2016-11-19T07:13:21.973Z,0
2016-11-19T07:14:22.290Z,0
2016-11-19T07:15:22.349Z,0
2016-11-19T07:16:21.756Z,0
2016-11-19T07:17:22.109Z,0
2016-11-19T07:18:22.424Z,0
2016-11-19T07:19:22.758Z,0
2016-11-19T07:20:22.790Z,0
2016-11-19T07:21:22.232Z,0
2016-11-19T07:22:22.516Z,0
2016-11-19T07:23:22.564Z,0
2016-11-19T07:24:21.982Z,0
2016-11-19T07:25:22.607Z,0
2016-11-19T07:26:22.639Z,0
2016-11-19T07:27:22.985Z,0
2016-11-19T07:28:22.693Z,0
2016-11-19T07:29:22.733Z,0
2016-11-19T07:30:22.779Z,0
2016-11-19T07:31:23.087Z,0
2016-11-19T07:32:23.104Z,0
2016-11-19T07:33:23.133Z,0
2016-11-19T07:34:23.157Z,0
2016-11-19T07:35:22.602Z,0
2016-11-19T07:36:22.916Z,0
2016-11-19T07:37:22.951Z,0
2016-11-19T07:38:23.261Z,0
2016-11-19T07:39:22.706Z,0
2016-11-19T07:40:22.726Z,0
2016-11-19T07:41:23.055Z,0
2016-11-19T07:42:23.420Z,0
2016-11-19T07:43:23.445Z,0
2016-11-19T07:44:23.142Z,0
2016-11-19T07:45:22.565Z,0
2016-11-19T07:46:23.199Z,0
2016-11-19T07:47:23.556Z,0
2016-11-19T07:48:23.550Z,0
2016-11-19T07:49:23.329Z,0
2016-11-19T07:50:22.710Z,0
2016-11-19T07:51:23.359Z,0
2016-11-19T07:52:23.071Z,0
2016-11-19T07:53:22.793Z,0
2016-11-19T07:54:23.726Z,0
2016-11-19T07:55:23.759Z,0
2016-11-19T07:56:23.778Z,0
2016-11-19T07:57:22.896Z,0
2016-11-19T07:58:22.933Z,0
2016-11-19T07:59:23.883Z,0
2016-11-19T08:00:23.914Z,0
2016-11-19T08:01:23.631Z,0
2016-11-19T08:02:23.653Z,0
2016-11-19T08:03:23.984Z,0
2016-11-19T08:04:23.381Z,0
2016-11-19T08:05:23.723Z,0
2016-11-19T08:06:23.751Z,0
2016-11-19T08:07:23.795Z,0
2016-11-19T08:08:23.800Z,0
2016-11-19T08:09:24.153Z,0
2016-11-19T08:10:23.874Z,0
2016-11-19T08:11:23.911Z,0
2016-11-19T08:12:23.616Z,0
2016-11-19T08:13:23.652Z,0
2016-11-19T08:14:23.989Z,0
2016-11-19T08:15:24.318Z,0
2016-11-19T08:16:23.731Z,0
2016-11-19T08:17:23.495Z,0
2016-11-19T08:18:24.088Z,0
2016-11-19T08:19:24.137Z,0
2016-11-19T08:20:24.446Z,0
2016-11-19T08:21:24.190Z,5
2016-11-19T08:22:24.339Z,5
2016-11-19T08:23:24.555Z,5
2016-11-19T08:24:24.033Z,5
2016-11-19T08:25:24.273Z,5
2016-11-19T08:26:24.309Z,5
2016-11-19T08:27:24.331Z,5
2016-11-19T08:28:24.672Z,5
2016-11-19T08:29:24.392Z,10
2016-11-19T08:30:24.421Z,5
2016-11-19T08:31:24.763Z,5
2016-11-19T08:32:24.167Z,10
2016-11-19T08:33:24.499Z,10
2016-11-19T08:34:24.540Z,10
2016-11-19T08:35:24.568Z,10
2016-11-19T08:36:24.877Z,5
2016-11-19T08:37:24.015Z,5
2016-11-19T08:38:24.339Z,5
2016-11-19T08:39:24.971Z,5
2016-11-19T08:40:24.997Z,10
2016-11-19T08:41:25.035Z,10
2016-11-19T08:42:25.063Z,10
2016-11-19T08:43:25.103Z,10
2016-11-19T08:44:24.520Z,10
2016-11-19T08:45:25.164Z,10
2016-11-19T08:46:25.173Z,10
2016-11-19T08:47:24.898Z,10
2016-11-19T08:48:24.917Z,10
2016-11-19T08:49:24.963Z,10
2016-11-19T08:50:25.283Z,10
2016-11-19T08:51:25.311Z,10
2016-11-19T08:52:24.792Z,10
2016-11-19T08:53:25.364Z,10
2016-11-19T08:54:24.786Z,10
2016-11-19T08:55:25.114Z,10
2016-11-19T08:56:25.140Z,10
2016-11-19T08:57:25.164Z,10
2016-11-19T08:58:25.213Z,5
2016-11-19T08:59:25.510Z,5
2016-11-19T09:00:24.643Z,5
2016-11-19T09:01:24.984Z,5
2016-11-19T09:02:25.308Z,5
2016-11-19T09:03:25.335Z,5
2016-11-19T09:04:25.366Z,5
2016-11-19T09:05:25.394Z,5
2016-11-19T09:06:25.719Z,5
2016-11-19T09:07:25.138Z,5
2016-11-19T09:08:24.876Z,10
2016-11-19T09:09:25.518Z,10
2016-11-19T09:10:25.835Z,10
2016-11-19T09:11:25.871Z,10
2016-11-19T09:12:25.280Z,5
2016-11-19T09:13:25.624Z,10
2016-11-19T09:14:25.037Z,10
2016-11-19T09:15:25.062Z,10
2016-11-19T09:16:25.999Z,10
2016-11-19T09:17:25.435Z,10
2016-11-19T09:18:26.049Z,10
2016-11-19T09:19:25.477Z,10
2016-11-19T09:20:26.124Z,15
2016-11-19T09:21:25.835Z,15
2016-11-19T09:22:25.888Z,15
2016-11-19T09:23:25.904Z,15
2016-11-19T09:24:25.628Z,15
2016-11-19T09:25:26.245Z,15
2016-11-19T09:26:25.662Z,10
2016-11-19T09:27:26.335Z,10
2016-11-19T09:28:26.328Z,10
2016-11-19T09:29:26.064Z,15
2016-11-19T09:30:26.093Z,20
2016-11-19T09:31:25.801Z,15
2016-11-19T09:32:26.450Z,20
2016-11-19T09:33:26.463Z,20
2016-11-19T09:34:25.876Z,15
2016-11-19T09:35:26.526Z,15
2016-11-19T09:36:26.245Z,20
2016-11-19T09:37:26.574Z,20
2016-11-19T09:38:26.315Z,20
2016-11-19T09:39:26.334Z,20
2016-11-19T09:40:26.667Z,20
2016-11-19T09:43:35.833Z,25
2016-11-19T09:44:36.430Z,20
2016-11-19T09:45:36.150Z,15
2016-11-19T09:46:36.179Z,10
2016-11-19T09:47:36.222Z,10
2016-11-19T09:48:35.935Z,10
2016-11-19T09:49:36.552Z,10
2016-11-19T09:50:36.301Z,10
2016-11-19T09:51:36.027Z,15
2016-11-19T09:52:36.355Z,15
2016-11-19T09:53:36.368Z,10
2016-11-19T09:54:36.397Z,15
2016-11-19T09:55:36.438Z,15
2016-11-19T09:56:36.762Z,15
2016-11-19T09:57:36.182Z,20
2016-11-19T09:58:36.823Z,20
2016-11-19T09:59:36.227Z,15
2016-11-19T10:00:36.874Z,15
2016-11-19T10:01:36.598Z,15
2016-11-19T10:02:36.645Z,20
2016-11-19T10:03:36.670Z,15
2016-11-19T10:04:36.985Z,15
2016-11-19T10:05:36.387Z,15
2016-11-19T10:06:37.040Z,15
2016-11-19T10:07:36.754Z,15
2016-11-19T10:08:37.096Z,15
2016-11-19T10:09:36.215Z,15
2016-11-19T10:10:36.543Z,10
2016-11-19T10:11:37.151Z,15
2016-11-19T10:12:36.897Z,15
2016-11-19T10:13:36.928Z,15
2016-11-19T10:14:36.947Z,15
2016-11-19T10:15:37.286Z,10
2016-11-19T10:16:37.014Z,10
2016-11-19T10:17:37.335Z,10
2016-11-19T10:18:37.056Z,15
2016-11-19T10:19:36.484Z,15
2016-11-19T10:20:37.125Z,15
2016-11-19T10:21:37.155Z,15
2016-11-19T10:22:37.167Z,15
2016-11-19T10:23:37.511Z,15
2016-11-19T10:24:37.228Z,15
2016-11-19T10:25:37.568Z,15
2016-11-19T10:26:36.974Z,15
2016-11-19T10:27:36.997Z,20
2016-11-19T10:28:37.339Z,25
2016-11-19T10:29:37.671Z,50
2016-11-19T10:30:37.388Z,35
2016-11-19T10:31:37.116Z,25
2016-11-19T10:32:37.757Z,20
2016-11-19T10:33:37.794Z,20
2016-11-19T10:34:37.184Z,20
2016-11-19T10:35:37.528Z,25
2016-11-19T10:36:37.872Z,25
2016-11-19T10:37:37.885Z,30
2016-11-19T10:38:37.897Z,30
2016-11-19T10:39:37.946Z,25
2016-11-19T10:40:38.021Z,30
2016-11-19T10:41:37.993Z,35
2016-11-19T10:42:37.404Z,25
2016-11-19T10:43:38.037Z,15
2016-11-19T10:44:37.477Z,15
2016-11-19T10:45:38.118Z,15
2016-11-19T10:46:37.839Z,40
2016-11-19T10:47:37.243Z,40
2016-11-19T10:48:38.196Z,40
2016-11-19T10:49:38.215Z,40
2016-11-19T10:50:38.233Z,45
2016-11-19T10:51:38.286Z,50
2016-11-19T10:52:38.303Z,25
2016-11-19T10:53:38.040Z,40
2016-11-19T10:54:38.352Z,25
2016-11-19T10:55:38.393Z,35
2016-11-19T10:56:38.125Z,45
2016-11-19T10:57:38.113Z,40
2016-11-19T10:58:38.463Z,35
2016-11-19T10:59:38.503Z,30
2016-11-19T11:00:38.516Z,25
2016-11-19T11:01:38.244Z,25
2016-11-19T11:02:38.277Z,40
2016-11-19T11:03:38.305Z,45
2016-11-19T11:04:38.018Z,60
2016-11-19T11:05:38.659Z,75
2016-11-19T11:06:38.695Z,25
2016-11-19T11:07:38.400Z,25
2016-11-19T11:08:38.737Z,30
2016-11-19T11:09:38.165Z,30
2016-11-19T11:10:38.810Z,30
2016-11-19T11:11:38.514Z,45
2016-11-19T11:12:38.547Z,40
2016-11-19T11:13:38.576Z,50
2016-11-19T11:14:38.897Z,40
2016-11-19T11:15:38.633Z,75
2016-11-19T11:16:38.357Z,35
2016-11-19T11:17:38.995Z,65
2016-11-19T11:18:39.019Z,65
2016-11-19T11:19:38.119Z,70
2016-11-19T11:20:39.081Z,70
2016-11-19T11:21:38.805Z,70
2016-11-19T11:22:38.530Z,65
2016-11-19T11:23:38.838Z,80
2016-11-19T11:24:38.878Z,30
2016-11-19T11:25:38.915Z,65
2016-11-19T11:26:38.632Z,60
2016-11-19T11:27:38.653Z,60
2016-11-19T11:28:39.274Z,60
2016-11-19T11:29:39.008Z,60
2016-11-19T11:30:38.755Z,55
2016-11-19T11:31:39.072Z,55
2016-11-19T11:32:39.124Z,45
2016-11-19T11:33:38.825Z,55
2016-11-19T11:34:39.150Z,55
2016-11-19T11:35:39.178Z,25
2016-11-19T11:36:38.934Z,30
2016-11-19T11:37:38.935Z,50
2016-11-19T11:38:39.269Z,20
2016-11-19T11:39:39.593Z,55
2016-11-19T11:40:39.630Z,60
2016-11-19T11:41:39.358Z,70
2016-11-19T11:42:39.379Z,35
2016-11-19T11:43:39.719Z,45
2016-11-19T11:44:39.745Z,40
2016-11-19T11:45:39.461Z,40
2016-11-19T11:46:39.482Z,30
2016-11-19T11:47:39.542Z,40
2016-11-19T11:48:39.251Z,55
2016-11-19T11:49:39.575Z,70
2016-11-19T11:50:39.909Z,55
2016-11-19T11:51:39.933Z,60
2016-11-19T11:52:39.650Z,45
2016-11-19T11:53:39.374Z,25
2016-11-19T11:54:39.734Z,25
2016-11-19T11:55:40.051Z,15
2016-11-19T11:56:39.464Z,15
2016-11-19T11:57:38.880Z,15
2016-11-19T11:58:39.838Z,15
2016-11-19T11:59:39.851Z,15
2016-11-19T12:00:40.171Z,15
2016-11-19T12:01:39.896Z,20
2016-11-19T12:02:40.237Z,40
2016-11-19T12:03:40.265Z,35
2016-11-19T12:04:40.310Z,30
2016-11-19T12:05:40.322Z,30
2016-11-19T12:06:39.747Z,30
2016-11-19T12:07:40.368Z,30
2016-11-19T12:08:40.436Z,25
2016-11-19T12:09:40.426Z,25
2016-11-19T12:10:40.482Z,25
2016-11-19T12:11:39.580Z,30
2016-11-19T12:12:40.229Z,30
2016-11-19T12:13:40.249Z,25
2016-11-19T12:14:39.982Z,20
2016-11-19T12:15:40.302Z,20
2016-11-19T12:16:40.634Z,25
2016-11-19T12:17:40.060Z,30
2016-11-19T12:18:40.384Z,25
2016-11-19T12:19:40.400Z,30
2016-11-19T12:20:40.441Z,40
2016-11-19T12:21:40.762Z,35
2016-11-19T12:22:40.799Z,30
2016-11-19T12:23:40.217Z,30
2016-11-19T12:24:40.253Z,30
2016-11-19T12:25:40.881Z,35
2016-11-19T12:26:40.909Z,30
2016-11-19T12:27:40.639Z,25
2016-11-19T12:28:40.972Z,25
2016-11-19T12:29:40.693Z,20
2016-11-19T12:30:40.705Z,20
2016-11-19T12:31:40.769Z,15
2016-11-19T12:32:41.088Z,20
2016-11-19T12:33:40.798Z,25
2016-11-19T12:34:40.524Z,25
2016-11-19T12:35:40.852Z,30
2016-11-19T12:36:40.888Z,25
2016-11-19T12:37:41.214Z,30
2016-11-19T12:38:40.330Z,35
2016-11-19T12:39:41.287Z,35
2016-11-19T12:40:41.004Z,40
2016-11-19T12:41:40.710Z,45
2016-11-19T12:42:40.757Z,45
2016-11-19T12:43:40.794Z,45
2016-11-19T12:44:40.807Z,45
2016-11-19T12:45:41.143Z,45
2016-11-19T12:46:41.157Z,45
2016-11-19T12:47:41.507Z,40
2016-11-19T12:48:41.221Z,35
2016-11-19T12:49:40.941Z,35
2016-11-19T12:50:41.274Z,35
2016-11-19T12:51:41.307Z,30
2016-11-19T12:52:41.638Z,25
2016-11-19T12:53:41.665Z,20
2016-11-19T12:54:41.408Z,15
2016-11-19T12:55:41.705Z,20
2016-11-19T12:56:41.438Z,25
2016-11-19T12:57:41.179Z,25
2016-11-19T12:58:41.487Z,35
2016-11-19T12:59:41.836Z,40
2016-11-19T13:00:41.560Z,35
2016-11-19T13:01:41.597Z,25
2016-11-19T13:02:41.300Z,30
2016-11-19T13:03:41.619Z,25
2016-11-19T13:04:41.370Z,20
2016-11-19T13:05:41.995Z,25
2016-11-19T13:06:41.412Z,15
2016-11-19T13:07:42.037Z,10
2016-11-19T13:08:42.090Z,15
2016-11-19T13:09:41.816Z,15
2016-11-19T13:10:41.510Z,15
2016-11-19T13:11:42.164Z,25
2016-11-19T13:12:41.900Z,20
2016-11-19T13:13:41.948Z,30
2016-11-19T13:14:41.880Z,25
2016-11-19T13:15:41.978Z,25
2016-11-19T13:16:42.303Z,20
2016-11-19T13:17:41.719Z,15
2016-11-19T13:18:42.060Z,15
2016-11-19T13:19:42.393Z,10
2016-11-19T13:20:42.402Z,10
2016-11-19T13:21:42.175Z,10
2016-11-19T13:22:41.919Z,10
2016-11-19T13:23:42.488Z,10
2016-11-19T13:24:42.208Z,10
2016-11-19T13:25:42.550Z,10
2016-11-19T13:26:42.310Z,15
2016-11-19T13:27:42.607Z,15
2016-11-19T13:28:41.720Z,20
2016-11-19T13:29:42.641Z,20
2016-11-19T13:30:42.689Z,15
2016-11-19T13:31:42.714Z,15
2016-11-19T13:32:42.735Z,20
2016-11-19T13:33:42.783Z,25
2016-11-19T13:34:42.533Z,30
2016-11-19T13:35:42.217Z,25
2016-11-19T13:36:42.554Z,30
2016-11-19T13:37:42.895Z,15
2016-11-19T13:38:42.612Z,15
2016-11-19T13:39:42.023Z,20
2016-11-19T13:40:42.970Z,25
2016-11-19T13:41:42.690Z,20
2016-11-19T13:42:42.700Z,15
2016-11-19T13:43:43.043Z,15
2016-11-19T13:44:42.776Z,10
2016-11-19T13:45:42.797Z,10
2016-11-19T13:46:42.522Z,10
2016-11-19T13:47:42.556Z,10
2016-11-19T13:48:43.200Z,10
2016-11-19T13:49:42.607Z,15
2016-11-19T13:50:42.957Z,20
2016-11-19T13:51:42.965Z,20
2016-11-19T13:52:43.299Z,20
2016-11-19T13:53:43.035Z,20
2016-11-19T13:54:43.340Z,20
2016-11-19T13:55:43.380Z,20
2016-11-19T13:56:42.809Z,25
2016-11-19T13:57:43.137Z,20
2016-11-19T13:58:43.154Z,10
2016-11-19T13:59:43.495Z,10
2016-11-19T14:00:42.915Z,10
2016-11-19T14:01:43.233Z,10
2016-11-19T14:02:43.585Z,15
2016-11-19T14:03:43.591Z,15
2016-11-19T14:04:42.709Z,5
2016-11-19T14:05:43.062Z,5
2016-11-19T14:06:43.678Z,10
2016-11-19T14:07:43.713Z,5
2016-11-19T14:08:43.430Z,10
2016-11-19T14:09:43.782Z,5
2016-11-19T14:10:43.796Z,5
2016-11-19T14:11:43.828Z,5
2016-11-19T14:12:43.538Z,10
2016-11-19T14:13:43.887Z,10
2016-11-19T14:14:43.600Z,5
2016-11-19T14:15:43.327Z,5
2016-11-19T14:16:43.955Z,5
2016-11-19T14:17:43.990Z,10
2016-11-19T14:18:43.708Z,15
2016-11-19T14:19:44.270Z,15
2016-11-19T14:20:44.082Z,25
2016-11-19T14:21:44.132Z,15
2016-11-19T14:22:43.810Z,10
2016-11-19T14:23:43.245Z,10
2016-11-19T14:24:44.180Z,10
2016-11-19T14:25:44.201Z,5
2016-11-19T14:26:44.222Z,5
2016-11-19T14:27:44.294Z,5
2016-11-19T14:28:43.675Z,5
2016-11-19T14:29:43.703Z,5
2016-11-19T14:30:43.737Z,5
2016-11-19T14:31:44.388Z,5
2016-11-19T14:32:43.794Z,5
2016-11-19T14:33:43.829Z,5
2016-11-19T14:34:44.444Z,5
2016-11-19T14:35:44.160Z,5
2016-11-19T14:36:43.892Z,5
2016-11-19T14:37:44.225Z,5